sensor_id;sensor_type;location;lat;lon;timestamp;pressure;altitude;pressure_sealevel;temperature;humidity
59272;BME280;45043;51.068;7.026;2022-08-19T00:01:48;100143.97;;;17.68;53.38
59272;BME280;45043;51.068;7.026;2022-08-19T00:04:49;100146.34;;;17.64;53.66
59272;BME280;45043;51.068;7.026;2022-08-19T00:07:52;100146.59;;;17.63;54.07
59272;BME280;45043;51.068;7.026;2022-08-19T00:10:53;100148.72;;;17.61;53.52
59272;BME280;45043;51.068;7.026;2022-08-19T00:13:54;100143.84;;;17.58;53.64
59272;BME280;45043;51.068;7.026;2022-08-19T00:16:57;100148.66;;;17.56;53.69
59272;BME280;45043;51.068;7.026;2022-08-19T00:19:57;100140.59;;;17.56;53.55
59272;BME280;45043;51.068;7.026;2022-08-19T00:22:57;100140.84;;;17.54;53.91
59272;BME280;45043;51.068;7.026;2022-08-19T00:25:58;100141.09;;;17.53;54.01
59272;BME280;45043;51.068;7.026;2022-08-19T00:28:59;100137.63;;;17.52;53.53
59272;BME280;45043;51.068;7.026;2022-08-19T00:32:00;100130.81;;;17.44;53.39
59272;BME280;45043;51.068;7.026;2022-08-19T00:35:01;100145.84;;;17.45;54.11
59272;BME280;45043;51.068;7.026;2022-08-19T00:38:01;100144.72;;;17.41;54.53
59272;BME280;45043;51.068;7.026;2022-08-19T00:41:02;100152.22;;;17.39;54.22
59272;BME280;45043;51.068;7.026;2022-08-19T00:44:04;100140.78;;;17.27;54.55
59272;BME280;45043;51.068;7.026;2022-08-19T00:47:05;100146.25;;;17.32;54.20
59272;BME280;45043;51.068;7.026;2022-08-19T00:50:08;100136.53;;;17.31;54.69
59272;BME280;45043;51.068;7.026;2022-08-19T00:53:11;100136.00;;;17.29;54.53
59272;BME280;45043;51.068;7.026;2022-08-19T00:56:12;100138.69;;;17.29;54.76
59272;BME280;45043;51.068;7.026;2022-08-19T00:59:14;100144.84;;;17.30;54.21
59272;BME280;45043;51.068;7.026;2022-08-19T01:02:16;100142.97;;;17.30;54.55
59272;BME280;45043;51.068;7.026;2022-08-19T01:05:21;100136.00;;;17.29;54.79
59272;BME280;45043;51.068;7.026;2022-08-19T01:08:23;100138.09;;;17.27;54.59
59272;BME280;45043;51.068;7.026;2022-08-19T01:11:23;100140.25;;;17.25;54.86
59272;BME280;45043;51.068;7.026;2022-08-19T01:14:24;100148.28;;;17.25;54.59
59272;BME280;45043;51.068;7.026;2022-08-19T01:17:26;100143.41;;;17.22;54.87
59272;BME280;45043;51.068;7.026;2022-08-19T01:20:29;100149.81;;;17.21;54.69
59272;BME280;45043;51.068;7.026;2022-08-19T01:23:29;100139.63;;;17.18;55.26
59272;BME280;45043;51.068;7.026;2022-08-19T01:26:47;100143.34;;;17.17;54.91
59272;BME280;45043;51.068;7.026;2022-08-19T01:29:47;100136.75;;;17.08;55.44
59272;BME280;45043;51.068;7.026;2022-08-19T01:32:49;100136.81;;;17.13;55.31
59272;BME280;45043;51.068;7.026;2022-08-19T01:35:50;100130.00;;;17.05;55.16
59272;BME280;45043;51.068;7.026;2022-08-19T01:38:53;100131.38;;;17.08;55.41
59272;BME280;45043;51.068;7.026;2022-08-19T01:41:54;100119.53;;;17.04;55.50
59272;BME280;45043;51.068;7.026;2022-08-19T01:44:55;100131.13;;;17.09;55.55
59272;BME280;45043;51.068;7.026;2022-08-19T01:47:57;100139.44;;;17.08;55.29
59272;BME280;45043;51.068;7.026;2022-08-19T01:50:57;100129.19;;;17.05;55.42
59272;BME280;45043;51.068;7.026;2022-08-19T01:53:58;100127.09;;;17.07;55.50
59272;BME280;45043;51.068;7.026;2022-08-19T01:57:05;100120.59;;;17.03;55.98
59272;BME280;45043;51.068;7.026;2022-08-19T02:00:10;100123.78;;;16.99;56.10
59272;BME280;45043;51.068;7.026;2022-08-19T02:03:14;100123.13;;;16.92;56.21
59272;BME280;45043;51.068;7.026;2022-08-19T02:06:15;100119.31;;;16.88;56.20
59272;BME280;45043;51.068;7.026;2022-08-19T02:09:17;100108.97;;;16.80;56.73
59272;BME280;45043;51.068;7.026;2022-08-19T02:12:20;100132.63;;;16.83;57.08
59272;BME280;45043;51.068;7.026;2022-08-19T02:15:21;100136.13;;;16.84;56.42
59272;BME280;45043;51.068;7.026;2022-08-19T02:18:22;100128.94;;;16.84;56.00
59272;BME280;45043;51.068;7.026;2022-08-19T02:21:23;100131.03;;;16.82;55.96
59272;BME280;45043;51.068;7.026;2022-08-19T02:24:24;100131.50;;;16.79;55.82
59272;BME280;45043;51.068;7.026;2022-08-19T02:27:24;100125.81;;;16.75;56.09
59272;BME280;45043;51.068;7.026;2022-08-19T02:30:26;100123.56;;;16.67;56.19
59272;BME280;45043;51.068;7.026;2022-08-19T02:33:26;100129.25;;;16.71;55.96
59272;BME280;45043;51.068;7.026;2022-08-19T02:36:27;100126.81;;;16.69;56.18
59272;BME280;45043;51.068;7.026;2022-08-19T02:39:28;100134.28;;;16.67;56.26
59272;BME280;45043;51.068;7.026;2022-08-19T02:42:28;100147.13;;;16.65;55.89
59272;BME280;45043;51.068;7.026;2022-08-19T02:45:33;100148.44;;;16.63;55.77
59272;BME280;45043;51.068;7.026;2022-08-19T02:48:34;100146.81;;;16.62;56.24
59272;BME280;45043;51.068;7.026;2022-08-19T02:51:38;100148.13;;;16.59;56.19
59272;BME280;45043;51.068;7.026;2022-08-19T02:54:39;100150.47;;;16.56;56.35
59272;BME280;45043;51.068;7.026;2022-08-19T02:57:40;100146.66;;;16.52;56.30
59272;BME280;45043;51.068;7.026;2022-08-19T03:00:47;100158.41;;;16.50;56.44
59272;BME280;45043;51.068;7.026;2022-08-19T03:03:51;100151.69;;;16.48;56.87
59272;BME280;45043;51.068;7.026;2022-08-19T03:06:52;100150.88;;;16.47;56.76
59272;BME280;45043;51.068;7.026;2022-08-19T03:09:52;100150.56;;;16.44;56.69
59272;BME280;45043;51.068;7.026;2022-08-19T03:12:53;100141.13;;;16.41;56.89
59272;BME280;45043;51.068;7.026;2022-08-19T03:15:54;100144.53;;;16.37;57.23
59272;BME280;45043;51.068;7.026;2022-08-19T03:18:56;100147.78;;;16.39;57.41
59272;BME280;45043;51.068;7.026;2022-08-19T03:21:59;100144.22;;;16.33;57.05
59272;BME280;45043;51.068;7.026;2022-08-19T03:25:00;100145.25;;;16.32;57.13
59272;BME280;45043;51.068;7.026;2022-08-19T03:28:01;100147.69;;;16.34;57.39
59272;BME280;45043;51.068;7.026;2022-08-19T03:31:07;100157.00;;;16.31;57.72
59272;BME280;45043;51.068;7.026;2022-08-19T03:34:19;100167.72;;;16.31;57.32
59272;BME280;45043;51.068;7.026;2022-08-19T03:37:20;100154.47;;;16.24;57.06
59272;BME280;45043;51.068;7.026;2022-08-19T03:40:21;100162.84;;;16.28;57.47
59272;BME280;45043;51.068;7.026;2022-08-19T03:43:22;100155.53;;;16.07;57.34
59272;BME280;45043;51.068;7.026;2022-08-19T03:46:27;100162.03;;;16.11;57.72
59272;BME280;45043;51.068;7.026;2022-08-19T03:49:30;100162.50;;;16.08;58.03
59272;BME280;45043;51.068;7.026;2022-08-19T03:52:39;100166.13;;;16.01;57.95
59272;BME280;45043;51.068;7.026;2022-08-19T03:55:40;100171.16;;;15.98;58.46
59272;BME280;45043;51.068;7.026;2022-08-19T03:58:42;100168.13;;;15.94;58.28
59272;BME280;45043;51.068;7.026;2022-08-19T04:01:42;100168.72;;;15.96;58.17
59272;BME280;45043;51.068;7.026;2022-08-19T04:04:43;100172.94;;;15.92;58.19
59272;BME280;45043;51.068;7.026;2022-08-19T04:07:44;100165.03;;;15.86;58.10
59272;BME280;45043;51.068;7.026;2022-08-19T04:10:44;100182.03;;;15.91;58.32
59272;BME280;45043;51.068;7.026;2022-08-19T04:13:45;100162.09;;;15.87;58.02
59272;BME280;45043;51.068;7.026;2022-08-19T04:16:47;100181.44;;;15.89;57.61
59272;BME280;45043;51.068;7.026;2022-08-19T04:19:47;100178.75;;;15.89;57.91
59272;BME280;45043;51.068;7.026;2022-08-19T04:22:48;100192.41;;;15.88;58.10
59272;BME280;45043;51.068;7.026;2022-08-19T04:25:49;100189.94;;;15.86;58.11
59272;BME280;45043;51.068;7.026;2022-08-19T04:28:50;100189.94;;;15.86;57.99
59272;BME280;45043;51.068;7.026;2022-08-19T04:31:55;100182.97;;;15.85;58.22
59272;BME280;45043;51.068;7.026;2022-08-19T04:34:56;100180.31;;;15.85;58.23
59272;BME280;45043;51.068;7.026;2022-08-19T04:37:58;100191.47;;;15.82;58.50
59272;BME280;45043;51.068;7.026;2022-08-19T04:40:59;100180.91;;;15.75;58.76
59272;BME280;45043;51.068;7.026;2022-08-19T04:44:18;100189.94;;;15.86;58.74
59272;BME280;45043;51.068;7.026;2022-08-19T04:47:19;100192.97;;;15.90;58.39
59272;BME280;45043;51.068;7.026;2022-08-19T04:50:20;100190.75;;;15.87;59.18
59272;BME280;45043;51.068;7.026;2022-08-19T04:53:27;100200.44;;;15.88;59.45
59272;BME280;45043;51.068;7.026;2022-08-19T04:56:34;100197.53;;;15.89;58.77
59272;BME280;45043;51.068;7.026;2022-08-19T04:59:36;100209.38;;;15.93;58.37
59272;BME280;45043;51.068;7.026;2022-08-19T05:02:38;100211.00;;;15.94;58.57
59272;BME280;45043;51.068;7.026;2022-08-19T05:05:40;100217.41;;;15.93;58.65
59272;BME280;45043;51.068;7.026;2022-08-19T05:08:43;100222.31;;;15.96;58.38
59272;BME280;45043;51.068;7.026;2022-08-19T05:11:46;100221.59;;;16.01;58.02
59272;BME280;45043;51.068;7.026;2022-08-19T05:14:47;100210.06;;;16.00;58.00
59272;BME280;45043;51.068;7.026;2022-08-19T05:17:49;100209.59;;;16.03;57.63
59272;BME280;45043;51.068;7.026;2022-08-19T05:21:14;100219.56;;;16.08;57.70
59272;BME280;45043;51.068;7.026;2022-08-19T05:24:35;100229.81;;;16.11;58.03
59272;BME280;45043;51.068;7.026;2022-08-19T05:27:36;100227.38;;;16.10;57.57
59272;BME280;45043;51.068;7.026;2022-08-19T05:30:37;100234.38;;;16.11;58.09
59272;BME280;45043;51.068;7.026;2022-08-19T05:33:37;100236.59;;;16.14;57.31
59272;BME280;45043;51.068;7.026;2022-08-19T05:36:43;100237.22;;;16.21;58.03
59272;BME280;45043;51.068;7.026;2022-08-19T05:39:45;100226.03;;;16.24;57.64
59272;BME280;45043;51.068;7.026;2022-08-19T05:42:45;100229.38;;;16.31;56.79
59272;BME280;45043;51.068;7.026;2022-08-19T05:45:46;100247.41;;;16.47;56.87
59272;BME280;45043;51.068;7.026;2022-08-19T05:48:47;100242.84;;;16.48;57.15
59272;BME280;45043;51.068;7.026;2022-08-19T05:51:49;100233.28;;;16.52;56.97
59272;BME280;45043;51.068;7.026;2022-08-19T05:54:49;100231.72;;;16.56;57.17
59272;BME280;45043;51.068;7.026;2022-08-19T05:57:51;100224.16;;;16.53;57.19
59272;BME280;45043;51.068;7.026;2022-08-19T06:00:51;100224.91;;;16.65;56.74
59272;BME280;45043;51.068;7.026;2022-08-19T06:03:55;100226.31;;;16.85;56.67
59272;BME280;45043;51.068;7.026;2022-08-19T06:06:55;100237.03;;;17.02;56.27
59272;BME280;45043;51.068;7.026;2022-08-19T06:09:56;100228.56;;;17.10;56.51
59272;BME280;45043;51.068;7.026;2022-08-19T06:12:57;100236.56;;;17.21;56.49
59272;BME280;45043;51.068;7.026;2022-08-19T06:15:57;100230.44;;;17.26;56.42
59272;BME280;45043;51.068;7.026;2022-08-19T06:19:00;100222.78;;;17.35;56.21
59272;BME280;45043;51.068;7.026;2022-08-19T06:22:00;100221.53;;;17.42;56.68
59272;BME280;45043;51.068;7.026;2022-08-19T06:25:04;100218.94;;;17.48;56.88
59272;BME280;45043;51.068;7.026;2022-08-19T06:28:05;100223.28;;;17.54;56.90
59272;BME280;45043;51.068;7.026;2022-08-19T06:31:06;100223.13;;;17.60;56.86
59272;BME280;45043;51.068;7.026;2022-08-19T06:34:07;100224.50;;;17.63;56.75
59272;BME280;45043;51.068;7.026;2022-08-19T06:37:08;100229.94;;;17.68;56.63
59272;BME280;45043;51.068;7.026;2022-08-19T06:40:09;100220.78;;;17.69;56.80
59272;BME280;45043;51.068;7.026;2022-08-19T06:43:11;100225.69;;;17.72;57.05
59272;BME280;45043;51.068;7.026;2022-08-19T06:46:13;100226.94;;;17.86;56.82
59272;BME280;45043;51.068;7.026;2022-08-19T06:49:14;100226.78;;;17.93;56.85
59272;BME280;45043;51.068;7.026;2022-08-19T06:52:15;100231.47;;;18.03;57.24
59272;BME280;45043;51.068;7.026;2022-08-19T06:55:16;100242.50;;;18.06;56.79
59272;BME280;45043;51.068;7.026;2022-08-19T06:58:17;100237.50;;;18.15;57.14
59272;BME280;45043;51.068;7.026;2022-08-19T07:01:19;100232.16;;;18.20;57.45
59272;BME280;45043;51.068;7.026;2022-08-19T07:04:25;100235.22;;;18.29;56.86
59272;BME280;45043;51.068;7.026;2022-08-19T07:07:26;100237.16;;;18.33;56.82
59272;BME280;45043;51.068;7.026;2022-08-19T07:10:27;100230.75;;;18.39;56.55
59272;BME280;45043;51.068;7.026;2022-08-19T07:13:27;100245.75;;;18.35;56.97
59272;BME280;45043;51.068;7.026;2022-08-19T07:16:28;100247.13;;;18.38;56.46
59272;BME280;45043;51.068;7.026;2022-08-19T07:19:29;100255.25;;;18.43;56.82
59272;BME280;45043;51.068;7.026;2022-08-19T07:22:29;100258.84;;;18.54;56.58
59272;BME280;45043;51.068;7.026;2022-08-19T07:25:31;100255.69;;;18.62;56.28
59272;BME280;45043;51.068;7.026;2022-08-19T07:28:32;100270.09;;;18.73;56.01
59272;BME280;45043;51.068;7.026;2022-08-19T07:31:33;100275.81;;;18.81;55.82
59272;BME280;45043;51.068;7.026;2022-08-19T07:34:37;100276.72;;;18.92;55.18
59272;BME280;45043;51.068;7.026;2022-08-19T07:37:37;100268.38;;;18.94;55.08
59272;BME280;45043;51.068;7.026;2022-08-19T07:40:39;100275.44;;;19.00;54.91
59272;BME280;45043;51.068;7.026;2022-08-19T07:43:42;100277.09;;;19.06;55.14
59272;BME280;45043;51.068;7.026;2022-08-19T07:46:46;100275.25;;;19.11;55.10
59272;BME280;45043;51.068;7.026;2022-08-19T07:49:48;100283.13;;;19.18;54.71
59272;BME280;45043;51.068;7.026;2022-08-19T07:52:49;100293.31;;;19.16;54.39
59272;BME280;45043;51.068;7.026;2022-08-19T07:55:50;100291.63;;;19.05;54.93
59272;BME280;45043;51.068;7.026;2022-08-19T07:58:52;100289.94;;;18.99;54.52
59272;BME280;45043;51.068;7.026;2022-08-19T08:01:52;100294.59;;;19.03;54.27
59272;BME280;45043;51.068;7.026;2022-08-19T08:04:54;100310.97;;;19.02;54.08
59272;BME280;45043;51.068;7.026;2022-08-19T08:08:13;100310.88;;;18.91;54.28
59272;BME280;45043;51.068;7.026;2022-08-19T08:11:31;100313.38;;;18.98;54.49
59272;BME280;45043;51.068;7.026;2022-08-19T08:14:35;100317.75;;;19.04;54.01
59272;BME280;45043;51.068;7.026;2022-08-19T08:17:37;100317.75;;;19.04;54.11
59272;BME280;45043;51.068;7.026;2022-08-19T08:20:39;100315.28;;;19.03;53.92
59272;BME280;45043;51.068;7.026;2022-08-19T08:23:39;100319.34;;;19.05;54.19
59272;BME280;45043;51.068;7.026;2022-08-19T08:26:40;100324.09;;;19.25;53.90
59272;BME280;45043;51.068;7.026;2022-08-19T08:29:42;100313.75;;;19.12;54.03
59272;BME280;45043;51.068;7.026;2022-08-19T08:32:45;100315.00;;;18.99;54.10
59272;BME280;45043;51.068;7.026;2022-08-19T08:35:45;100314.25;;;19.04;54.46
59272;BME280;45043;51.068;7.026;2022-08-19T08:38:47;100317.06;;;19.24;53.94
59272;BME280;45043;51.068;7.026;2022-08-19T08:42:13;100318.06;;;19.45;53.26
59272;BME280;45043;51.068;7.026;2022-08-19T08:45:18;100322.75;;;19.65;53.24
59272;BME280;45043;51.068;7.026;2022-08-19T08:48:32;100313.16;;;19.79;52.58
59272;BME280;45043;51.068;7.026;2022-08-19T08:51:46;100307.88;;;20.00;52.11
59272;BME280;45043;51.068;7.026;2022-08-19T08:54:52;100311.94;;;20.07;51.70
59272;BME280;45043;51.068;7.026;2022-08-19T08:58:00;100307.56;;;19.96;52.08
59272;BME280;45043;51.068;7.026;2022-08-19T09:01:01;100306.78;;;19.96;51.94
59272;BME280;45043;51.068;7.026;2022-08-19T09:04:07;100296.00;;;20.01;51.88
59272;BME280;45043;51.068;7.026;2022-08-19T09:10:29;100306.34;;;20.19;51.94
59272;BME280;45043;51.068;7.026;2022-08-19T09:17:12;100311.28;;;20.53;50.80
59272;BME280;45043;51.068;7.026;2022-08-19T09:20:19;100302.94;;;20.65;50.80
59272;BME280;45043;51.068;7.026;2022-08-19T09:23:20;100296.53;;;20.81;50.24
59272;BME280;45043;51.068;7.026;2022-08-19T09:26:24;100299.50;;;21.00;49.75
59272;BME280;45043;51.068;7.026;2022-08-19T09:29:25;100293.25;;;21.20;49.25
59272;BME280;45043;51.068;7.026;2022-08-19T09:32:26;100291.88;;;21.33;49.02
59272;BME280;45043;51.068;7.026;2022-08-19T09:35:29;100298.38;;;21.37;48.40
59272;BME280;45043;51.068;7.026;2022-08-19T09:38:29;100299.19;;;21.37;48.07
59272;BME280;45043;51.068;7.026;2022-08-19T09:41:32;100298.34;;;21.42;47.92
59272;BME280;45043;51.068;7.026;2022-08-19T09:44:33;100302.66;;;21.43;47.98
59272;BME280;45043;51.068;7.026;2022-08-19T09:47:33;100300.81;;;21.48;47.65
59272;BME280;45043;51.068;7.026;2022-08-19T09:50:38;100292.38;;;21.70;47.63
59272;BME280;45043;51.068;7.026;2022-08-19T09:53:38;100299.63;;;21.85;46.62
59272;BME280;45043;51.068;7.026;2022-08-19T09:56:39;100291.22;;;21.87;45.69
59272;BME280;45043;51.068;7.026;2022-08-19T09:59:39;100302.59;;;21.84;44.88
59272;BME280;45043;51.068;7.026;2022-08-19T10:02:40;100299.63;;;21.85;44.67
59272;BME280;45043;51.068;7.026;2022-08-19T10:05:40;100298.00;;;21.84;44.71
59272;BME280;45043;51.068;7.026;2022-08-19T10:08:50;100294.66;;;22.02;44.14
59272;BME280;45043;51.068;7.026;2022-08-19T10:11:51;100293.88;;;22.02;42.82
59272;BME280;45043;51.068;7.026;2022-08-19T10:14:53;100293.88;;;22.02;42.78
59272;BME280;45043;51.068;7.026;2022-08-19T10:17:55;100295.00;;;21.96;43.47
59272;BME280;45043;51.068;7.026;2022-08-19T10:21:05;100282.03;;;21.93;44.05
59272;BME280;45043;51.068;7.026;2022-08-19T10:24:08;100296.59;;;21.97;43.44
59272;BME280;45043;51.068;7.026;2022-08-19T10:27:09;100291.16;;;22.02;42.93
59272;BME280;45043;51.068;7.026;2022-08-19T10:30:10;100288.69;;;22.16;43.08
59272;BME280;45043;51.068;7.026;2022-08-19T10:33:11;100292.16;;;22.21;42.56
59272;BME280;45043;51.068;7.026;2022-08-19T10:36:22;100286.72;;;22.32;42.28
59272;BME280;45043;51.068;7.026;2022-08-19T10:39:23;100284.94;;;22.56;41.91
59272;BME280;45043;51.068;7.026;2022-08-19T10:42:23;100290.81;;;22.68;41.50
59272;BME280;45043;51.068;7.026;2022-08-19T10:45:24;100281.28;;;22.76;41.31
59272;BME280;45043;51.068;7.026;2022-08-19T10:48:27;100290.75;;;22.79;41.08
59272;BME280;45043;51.068;7.026;2022-08-19T10:51:30;100284.72;;;22.87;40.63
59272;BME280;45043;51.068;7.026;2022-08-19T10:54:49;100272.00;;;22.87;40.39
59272;BME280;45043;51.068;7.026;2022-08-19T10:58:13;100275.84;;;23.10;40.31
59272;BME280;45043;51.068;7.026;2022-08-19T11:01:14;100280.50;;;23.34;39.34
59272;BME280;45043;51.068;7.026;2022-08-19T11:04:15;100271.44;;;23.19;39.74
59272;BME280;45043;51.068;7.026;2022-08-19T11:07:17;100273.84;;;22.92;39.89
59272;BME280;45043;51.068;7.026;2022-08-19T11:10:18;100268.03;;;22.69;40.37
59272;BME280;45043;51.068;7.026;2022-08-19T11:13:19;100270.19;;;22.72;39.97
59272;BME280;45043;51.068;7.026;2022-08-19T11:16:22;100256.66;;;22.78;39.64
59272;BME280;45043;51.068;7.026;2022-08-19T11:19:23;100260.91;;;22.84;39.99
59272;BME280;45043;51.068;7.026;2022-08-19T11:22:24;100262.97;;;22.97;39.30
59272;BME280;45043;51.068;7.026;2022-08-19T11:25:24;100260.13;;;23.12;38.38
59272;BME280;45043;51.068;7.026;2022-08-19T11:28:25;100233.16;;;23.26;38.88
59272;BME280;45043;51.068;7.026;2022-08-19T11:31:28;100248.00;;;23.34;38.37
59272;BME280;45043;51.068;7.026;2022-08-19T11:34:30;100252.84;;;23.37;38.61
59272;BME280;45043;51.068;7.026;2022-08-19T11:37:31;100242.53;;;23.39;38.25
59272;BME280;45043;51.068;7.026;2022-08-19T11:40:31;100244.44;;;23.38;38.24
59272;BME280;45043;51.068;7.026;2022-08-19T11:43:34;100247.88;;;23.44;38.34
59272;BME280;45043;51.068;7.026;2022-08-19T11:46:36;100234.56;;;23.48;38.46
59272;BME280;45043;51.068;7.026;2022-08-19T11:49:37;100249.34;;;23.60;37.84
59272;BME280;45043;51.068;7.026;2022-08-19T11:52:38;100256.34;;;23.66;37.46
59272;BME280;45043;51.068;7.026;2022-08-19T11:55:39;100253.16;;;23.59;37.83
59272;BME280;45043;51.068;7.026;2022-08-19T11:58:40;100253.09;;;23.64;38.04
59272;BME280;45043;51.068;7.026;2022-08-19T12:01:43;100256.59;;;23.65;37.76
59272;BME280;45043;51.068;7.026;2022-08-19T12:04:44;100236.75;;;23.69;37.51
59272;BME280;45043;51.068;7.026;2022-08-19T12:07:45;100238.22;;;23.81;37.48
59272;BME280;45043;51.068;7.026;2022-08-19T12:10:46;100233.44;;;23.97;36.61
59272;BME280;45043;51.068;7.026;2022-08-19T12:13:46;100239.03;;;24.05;36.40
59272;BME280;45043;51.068;7.026;2022-08-19T12:16:47;100244.81;;;24.17;36.61
59272;BME280;45043;51.068;7.026;2022-08-19T12:19:48;100237.69;;;24.03;35.88
59272;BME280;45043;51.068;7.026;2022-08-19T12:22:49;100240.22;;;23.94;35.49
59272;BME280;45043;51.068;7.026;2022-08-19T12:25:50;100234.03;;;24.12;35.08
59272;BME280;45043;51.068;7.026;2022-08-19T12:28:51;100240.84;;;24.29;34.73
59272;BME280;45043;51.068;7.026;2022-08-19T12:31:52;100244.53;;;24.38;34.15
59272;BME280;45043;51.068;7.026;2022-08-19T12:34:54;100242.06;;;24.23;34.17
59272;BME280;45043;51.068;7.026;2022-08-19T12:37:54;100221.94;;;24.24;34.41
59272;BME280;45043;51.068;7.026;2022-08-19T12:40:55;100229.41;;;24.32;34.32
59272;BME280;45043;51.068;7.026;2022-08-19T12:43:56;100233.00;;;24.46;34.03
59272;BME280;45043;51.068;7.026;2022-08-19T12:46:56;100222.94;;;24.65;33.89
59272;BME280;45043;51.068;7.026;2022-08-19T12:49:57;100225.78;;;24.74;34.21
59272;BME280;45043;51.068;7.026;2022-08-19T12:52:57;100225.59;;;24.71;33.95
59272;BME280;45043;51.068;7.026;2022-08-19T12:55:58;100218.72;;;24.73;34.00
59272;BME280;45043;51.068;7.026;2022-08-19T12:59:03;100221.91;;;24.94;33.88
59272;BME280;45043;51.068;7.026;2022-08-19T13:02:06;100221.81;;;25.13;33.10
59272;BME280;45043;51.068;7.026;2022-08-19T13:05:08;100221.31;;;24.97;33.58
59272;BME280;45043;51.068;7.026;2022-08-19T13:08:10;100211.91;;;24.76;33.30
59272;BME280;45043;51.068;7.026;2022-08-19T13:11:16;100220.06;;;24.76;33.46
59272;BME280;45043;51.068;7.026;2022-08-19T13:14:17;100201.41;;;24.69;33.05
59272;BME280;45043;51.068;7.026;2022-08-19T13:17:20;100201.00;;;24.62;33.28
59272;BME280;45043;51.068;7.026;2022-08-19T13:20:21;100191.44;;;24.64;31.57
59272;BME280;45043;51.068;7.026;2022-08-19T13:23:22;100194.28;;;24.73;32.29
59272;BME280;45043;51.068;7.026;2022-08-19T13:26:22;100189.38;;;24.75;32.94
59272;BME280;45043;51.068;7.026;2022-08-19T13:29:23;100192.19;;;24.84;31.99
59272;BME280;45043;51.068;7.026;2022-08-19T13:32:42;100186.47;;;24.85;31.48
59272;BME280;45043;51.068;7.026;2022-08-19T13:36:01;100181.13;;;24.94;32.40
59272;BME280;45043;51.068;7.026;2022-08-19T13:39:02;100189.59;;;24.93;32.27
59272;BME280;45043;51.068;7.026;2022-08-19T13:42:03;100185.63;;;24.85;31.89
59272;BME280;45043;51.068;7.026;2022-08-19T13:45:05;100184.13;;;24.79;32.10
59272;BME280;45043;51.068;7.026;2022-08-19T13:48:07;100173.69;;;24.86;31.81
59272;BME280;45043;51.068;7.026;2022-08-19T13:51:09;100169.34;;;24.85;31.22
59272;BME280;45043;51.068;7.026;2022-08-19T13:54:11;100164.31;;;24.92;31.26
59272;BME280;45043;51.068;7.026;2022-08-19T13:57:13;100161.00;;;24.95;31.30
59272;BME280;45043;51.068;7.026;2022-08-19T14:00:16;100164.31;;;24.78;31.98
59272;BME280;45043;51.068;7.026;2022-08-19T14:03:18;100168.31;;;24.67;31.54
59272;BME280;45043;51.068;7.026;2022-08-19T14:06:19;100159.38;;;24.67;31.76
59272;BME280;45043;51.068;7.026;2022-08-19T14:09:21;100177.28;;;24.68;31.72
59272;BME280;45043;51.068;7.026;2022-08-19T14:12:22;100157.97;;;24.50;31.17
59272;BME280;45043;51.068;7.026;2022-08-19T14:15:22;100148.72;;;24.51;30.86
59272;BME280;45043;51.068;7.026;2022-08-19T14:18:23;100159.50;;;24.56;31.07
59272;BME280;45043;51.068;7.026;2022-08-19T14:21:25;100164.28;;;24.64;30.75
59272;BME280;45043;51.068;7.026;2022-08-19T14:24:26;100183.13;;;24.75;30.59
59272;BME280;45043;51.068;7.026;2022-08-19T14:27:27;100172.25;;;24.75;30.58
59272;BME280;45043;51.068;7.026;2022-08-19T14:30:29;100175.25;;;24.73;31.00
59272;BME280;45043;51.068;7.026;2022-08-19T14:33:37;100194.16;;;24.64;31.33
59272;BME280;45043;51.068;7.026;2022-08-19T14:36:38;100177.97;;;24.59;31.56
59272;BME280;45043;51.068;7.026;2022-08-19T14:39:38;100174.25;;;24.69;31.71
59272;BME280;45043;51.068;7.026;2022-08-19T14:42:42;100184.84;;;24.71;31.09
59272;BME280;45043;51.068;7.026;2022-08-19T14:45:43;100183.63;;;24.63;30.13
59272;BME280;45043;51.068;7.026;2022-08-19T14:48:43;100195.56;;;24.62;30.98
59272;BME280;45043;51.068;7.026;2022-08-19T14:51:44;100182.41;;;24.50;31.15
59272;BME280;45043;51.068;7.026;2022-08-19T14:54:47;100183.22;;;24.51;31.60
59272;BME280;45043;51.068;7.026;2022-08-19T14:57:47;100173.78;;;24.48;31.38
59272;BME280;45043;51.068;7.026;2022-08-19T15:00:48;100178.47;;;24.61;30.67
59272;BME280;45043;51.068;7.026;2022-08-19T15:03:49;100179.88;;;24.73;31.30
59272;BME280;45043;51.068;7.026;2022-08-19T15:06:49;100187.16;;;24.91;31.09
59272;BME280;45043;51.068;7.026;2022-08-19T15:09:51;100169.53;;;24.88;30.66
59272;BME280;45043;51.068;7.026;2022-08-19T15:12:51;100168.16;;;24.91;30.28
59272;BME280;45043;51.068;7.026;2022-08-19T15:15:54;100174.50;;;25.00;30.34
59272;BME280;45043;51.068;7.026;2022-08-19T15:18:56;100176.94;;;25.16;30.17
59272;BME280;45043;51.068;7.026;2022-08-19T15:21:58;100178.78;;;25.20;29.47
59272;BME280;45043;51.068;7.026;2022-08-19T15:24:58;100187.03;;;25.29;29.24
59272;BME280;45043;51.068;7.026;2022-08-19T15:27:59;100184.91;;;25.26;29.31
59272;BME280;45043;51.068;7.026;2022-08-19T15:31:00;100194.47;;;25.23;28.98
59272;BME280;45043;51.068;7.026;2022-08-19T15:34:02;100197.28;;;25.32;28.58
59272;BME280;45043;51.068;7.026;2022-08-19T15:37:03;100191.44;;;25.25;29.05
59272;BME280;45043;51.068;7.026;2022-08-19T15:40:08;100207.69;;;25.30;29.26
59272;BME280;45043;51.068;7.026;2022-08-19T15:43:08;100208.56;;;25.39;28.59
59272;BME280;45043;51.068;7.026;2022-08-19T15:46:09;100190.25;;;25.31;28.79
59272;BME280;45043;51.068;7.026;2022-08-19T15:49:13;100202.34;;;25.38;28.59
59272;BME280;45043;51.068;7.026;2022-08-19T15:52:15;100195.91;;;25.48;28.12
59272;BME280;45043;51.068;7.026;2022-08-19T15:55:17;100195.69;;;25.45;27.78
59272;BME280;45043;51.068;7.026;2022-08-19T15:58:18;100210.41;;;25.30;28.16
59272;BME280;45043;51.068;7.026;2022-08-19T16:01:36;100201.06;;;25.03;28.16